Terminal Aerodrome Forecast
Issued by NWS Portland, ME

Home | Current Version | Previous Version | Text Only | Print | Product List | Glossary On
Versions: 1 2 3 4 5 6 7 8 9 10 11 12 13 14 15 16
000
FTUS41 KGYX 171730
TAFCON
TAF
KCON 171730Z 1718/1818 30010KT P6SM FEW050 SCT250
     FM180000 00000KT P6SM SCT120 BKN250
     FM180900 VRB03KT P6SM VCSH SCT060 BKN100
     FM181300 14005KT P6SM -SHRA SCT020 BKN045 OVC080=

USA.gov is the U.S. government's official web portal to all federal, state and local government web resources and services.